Time;durP1;ratioP1;P1;durP2;ratioP2;P2;SDS_P1;SDS_P2;PMS_P1;PMS_P2;Temp;Humidity;BMP_temperature;BMP_pressure;BME280_temperature;BME280_humidity;BME280_pressure;Samples;Min_cycle;Max_cycle;Signal;HPM_P1;HPM_P2
2023/12/31 00:01:22;;;;;;;3.17;1.92;;;8.20;99.90;;;;;;5021040;28;94714;-29
2023/12/31 00:03:48;;;;;;;11.38;2.53;;;8.20;99.90;;;;;;5018883;28;92719;-31
2023/12/31 00:06:13;;;;;;;5.43;2.70;;;8.20;99.90;;;;;;5020945;28;94550;-33
2023/12/31 00:08:39;;;;;;;3.83;2.38;;;8.10;99.90;;;;;;5011002;28;94364;-30
2023/12/31 00:11:04;;;;;;;4.03;2.85;;;8.20;99.90;;;;;;5021662;28;94270;-32
2023/12/31 00:13:30;;;;;;;3.35;2.88;;;8.10;99.90;;;;;;5019825;28;93221;-31
2023/12/31 00:15:56;;;;;;;3.42;2.75;;;8.10;99.90;;;;;;5002516;28;94493;-33
2023/12/31 00:18:21;;;;;;;4.03;3.38;;;8.10;99.90;;;;;;5011919;28;92938;-32
2023/12/31 00:20:47;;;;;;;7.60;2.63;;;8.20;99.90;;;;;;5018458;27;95623;-30
2023/12/31 00:23:13;;;;;;;3.95;3.22;;;8.10;99.90;;;;;;5016031;28;93350;-30
2023/12/31 00:25:39;;;;;;;4.28;3.17;;;8.20;99.90;;;;;;5017045;27;94269;-29
2023/12/31 00:28:05;;;;;;;5.05;3.65;;;8.20;99.90;;;;;;5016016;28;94383;-33
2023/12/31 00:30:30;;;;;;;4.22;3.80;;;8.20;99.90;;;;;;5005852;28;93845;-31
2023/12/31 00:32:56;;;;;;;4.97;3.17;;;8.20;99.90;;;;;;4998392;28;94767;-34
2023/12/31 00:35:22;;;;;;;4.55;3.47;;;8.10;99.90;;;;;;4998465;28;94356;-29
2023/12/31 00:37:47;;;;;;;5.40;3.28;;;8.10;99.90;;;;;;4998859;28;94047;-30
2023/12/31 00:40:13;;;;;;;3.03;2.83;;;8.10;99.90;;;;;;4999036;28;94619;-32
2023/12/31 00:42:39;;;;;;;3.70;2.63;;;8.10;99.90;;;;;;5016414;28;93900;-33
2023/12/31 00:45:06;;;;;;;6.03;2.92;;;8.10;99.90;;;;;;5017128;27;95783;-29
2023/12/31 00:47:31;;;;;;;3.67;2.47;;;8.10;99.90;;;;;;5017886;27;95577;-29
2023/12/31 00:49:58;;;;;;;3.30;2.80;;;8.00;99.90;;;;;;4999570;28;93607;-28
2023/12/31 00:52:23;;;;;;;16.50;3.15;;;8.00;99.90;;;;;;4990422;28;94534;-34
2023/12/31 00:54:50;;;;;;;3.30;3.10;;;8.00;99.90;;;;;;4998500;28;94656;-33
2023/12/31 00:57:16;;;;;;;4.50;2.60;;;8.00;99.90;;;;;;4997569;28;94209;-32
2023/12/31 00:59:42;;;;;;;3.88;3.42;;;8.00;99.90;;;;;;4999022;28;94484;-33
2023/12/31 01:02:08;;;;;;;4.97;3.58;;;8.00;99.90;;;;;;4998759;28;92070;-31
2023/12/31 01:04:35;;;;;;;9.27;3.15;;;8.00;99.90;;;;;;4998251;28;94849;-30
2023/12/31 01:07:00;;;;;;;4.38;2.60;;;7.90;99.90;;;;;;4998357;28;94580;-33
2023/12/31 01:09:26;;;;;;;6.15;3.13;;;8.00;99.90;;;;;;4998369;28;95152;-31
2023/12/31 01:11:51;;;;;;;4.13;2.60;;;7.90;99.90;;;;;;4997775;28;92200;-33
2023/12/31 01:14:17;;;;;;;6.72;3.45;;;7.90;99.90;;;;;;4997479;28;94487;-31
2023/12/31 01:16:43;;;;;;;4.43;2.85;;;7.90;99.90;;;;;;4997184;28;95152;-30
2023/12/31 01:19:08;;;;;;;3.65;2.42;;;7.90;99.90;;;;;;4998324;28;93872;-32
2023/12/31 01:21:34;;;;;;;3.22;2.55;;;7.90;99.90;;;;;;4998133;28;93156;-30
2023/12/31 01:24:00;;;;;;;3.33;2.50;;;7.90;99.90;;;;;;4991950;28;94742;-33
2023/12/31 01:26:25;;;;;;;2.33;1.90;;;7.90;99.90;;;;;;4990535;28;93817;-30
2023/12/31 01:28:51;;;;;;;4.20;2.95;;;7.90;99.90;;;;;;5010412;28;93347;-31
2023/12/31 01:31:20;;;;;;;1.95;1.73;;;7.90;99.90;;;;;;5016333;28;92122;-30
2023/12/31 01:33:46;;;;;;;3.25;2.25;;;7.90;99.90;;;;;;5004631;28;96229;-30
2023/12/31 01:36:20;;;;;;;3.55;2.83;;;7.90;99.90;;;;;;4997209;28;95445;-34
2023/12/31 01:38:45;;;;;;;3.03;2.17;;;7.90;99.90;;;;;;4998054;28;92591;-31
2023/12/31 01:41:11;;;;;;;3.75;2.72;;;7.80;99.90;;;;;;4996662;28;94852;-29
2023/12/31 01:43:37;;;;;;;4.32;3.10;;;7.80;99.90;;;;;;4998385;28;94525;-30
2023/12/31 01:46:08;;;;;;;2.60;2.15;;;7.80;99.90;;;;;;4996827;28;93911;-30
2023/12/31 01:48:34;;;;;;;4.97;3.08;;;7.80;99.90;;;;;;4998198;28;92740;-30
2023/12/31 01:51:01;;;;;;;4.70;3.22;;;7.80;99.90;;;;;;4997759;28;92958;-30
2023/12/31 01:53:27;;;;;;;5.85;2.15;;;7.80;99.90;;;;;;4998802;28;94445;-31
2023/12/31 01:55:54;;;;;;;2.65;2.45;;;7.80;99.90;;;;;;4985233;28;94028;-33
2023/12/31 01:58:21;;;;;;;4.03;2.58;;;7.70;99.90;;;;;;4990872;28;95647;-34
2023/12/31 02:00:47;;;;;;;3.35;2.25;;;7.70;99.90;;;;;;4989811;28;94311;-29
2023/12/31 02:03:15;;;;;;;3.30;2.95;;;7.70;99.90;;;;;;4997415;28;94504;-30
2023/12/31 02:05:41;;;;;;;3.88;3.50;;;7.70;99.90;;;;;;4996795;28;95023;-29
2023/12/31 02:08:07;;;;;;;2.78;2.47;;;7.60;99.90;;;;;;4997111;28;94499;-32
2023/12/31 02:10:32;;;;;;;1.77;1.52;;;7.70;99.90;;;;;;4996627;28;93335;-31
2023/12/31 02:12:59;;;;;;;3.72;2.35;;;7.60;99.90;;;;;;4996857;28;94776;-29
2023/12/31 02:15:32;;;;;;;2.92;2.15;;;7.60;99.90;;;;;;4997624;28;94463;-29
2023/12/31 02:18:00;;;;;;;2.72;1.75;;;7.50;99.90;;;;;;4998060;28;93454;-30
2023/12/31 02:20:29;;;;;;;2.70;2.20;;;7.50;99.90;;;;;;4997865;28;93234;-32
2023/12/31 02:22:55;;;;;;;3.92;2.25;;;7.50;99.90;;;;;;4996866;28;96154;-31
2023/12/31 02:25:24;;;;;;;3.10;2.05;;;7.50;99.90;;;;;;4996181;28;96018;-30
2023/12/31 02:27:51;;;;;;;3.80;1.80;;;7.50;99.90;;;;;;5000012;28;94223;-29
2023/12/31 02:30:17;;;;;;;1.92;1.67;;;7.50;99.90;;;;;;5005851;28;94308;-34
2023/12/31 02:32:43;;;;;;;2.17;2.00;;;7.50;99.90;;;;;;4990405;28;93995;-32
2023/12/31 02:35:09;;;;;;;2.05;1.73;;;7.60;99.90;;;;;;4987378;28;94830;-32
2023/12/31 02:37:34;;;;;;;3.08;1.95;;;7.60;99.90;;;;;;4996282;28;92794;-29
2023/12/31 02:40:00;;;;;;;1.73;1.63;;;7.60;99.90;;;;;;4996527;28;92644;-32
2023/12/31 02:42:25;;;;;;;1.60;1.35;;;7.60;99.90;;;;;;5009703;28;94233;-30
2023/12/31 02:44:51;;;;;;;2.47;1.98;;;7.60;99.90;;;;;;4995438;28;95626;-31
2023/12/31 02:47:17;;;;;;;2.13;1.60;;;7.70;99.90;;;;;;4996096;28;94107;-31
2023/12/31 02:49:42;;;;;;;3.55;2.00;;;7.70;99.90;;;;;;4997384;28;92713;-31
2023/12/31 02:52:10;;;;;;;3.45;2.17;;;7.70;99.90;;;;;;4995792;28;95130;-31
2023/12/31 02:54:35;;;;;;;2.55;2.17;;;7.70;99.90;;;;;;4996675;28;94520;-28
2023/12/31 02:57:01;;;;;;;2.45;2.08;;;7.60;99.90;;;;;;4996793;28;93266;-30
2023/12/31 02:59:27;;;;;;;1.92;1.67;;;7.70;99.90;;;;;;4996493;28;94143;-30
2023/12/31 03:01:53;;;;;;;3.35;1.92;;;7.60;99.90;;;;;;4996653;28;94780;-30
2023/12/31 03:04:18;;;;;;;2.30;1.23;;;7.60;99.90;;;;;;4996535;28;93076;-33
2023/12/31 03:06:45;;;;;;;2.13;1.80;;;7.60;99.90;;;;;;4990942;28;93395;-32
2023/12/31 03:09:10;;;;;;;4.22;2.10;;;7.60;99.90;;;;;;4988933;28;92978;-29
2023/12/31 03:11:36;;;;;;;3.25;1.73;;;7.60;99.90;;;;;;4995311;28;95261;-29
2023/12/31 03:14:02;;;;;;;4.10;1.90;;;7.50;99.90;;;;;;4996473;28;95171;-31
2023/12/31 03:16:27;;;;;;;8.38;2.17;;;7.50;99.90;;;;;;4996560;28;94611;-31
2023/12/31 03:18:53;;;;;;;4.38;2.63;;;7.50;99.90;;;;;;4996312;28;93108;-34
2023/12/31 03:21:19;;;;;;;1.75;1.65;;;7.50;99.90;;;;;;4996344;28;94814;-29
2023/12/31 03:23:44;;;;;;;2.30;1.88;;;7.40;99.90;;;;;;4995894;28;93856;-31
2023/12/31 03:26:10;;;;;;;3.92;2.53;;;7.40;99.90;;;;;;4995161;28;94578;-30
2023/12/31 03:28:36;;;;;;;2.85;2.65;;;7.40;99.90;;;;;;5005900;28;92071;-28
2023/12/31 03:31:03;;;;;;;2.38;1.60;;;7.40;99.90;;;;;;4999071;27;94531;-29
2023/12/31 03:33:31;;;;;;;1.48;1.38;;;7.40;99.90;;;;;;5005252;28;94879;-30
2023/12/31 03:35:57;;;;;;;1.73;1.63;;;7.40;99.90;;;;;;4998334;27;93922;-34
2023/12/31 03:38:23;;;;;;;2.55;1.88;;;7.40;99.90;;;;;;4995683;28;93766;-30
2023/12/31 03:40:48;;;;;;;3.67;2.75;;;7.40;99.90;;;;;;4993154;28;95102;-29
2023/12/31 03:43:14;;;;;;;1.92;1.60;;;7.30;99.90;;;;;;5006437;28;93515;-29
2023/12/31 03:45:39;;;;;;;1.33;1.23;;;7.40;99.90;;;;;;5015502;28;93431;-30
2023/12/31 03:48:05;;;;;;;2.30;1.95;;;7.40;99.90;;;;;;5004722;28;92091;-32
2023/12/31 03:50:31;;;;;;;2.85;2.38;;;7.40;99.90;;;;;;4995841;28;94811;-33
2023/12/31 03:52:57;;;;;;;2.35;2.15;;;7.40;99.90;;;;;;4995868;28;95069;-30
2023/12/31 03:55:23;;;;;;;3.20;2.15;;;7.40;99.90;;;;;;4997225;28;94511;-32
2023/12/31 03:57:49;;;;;;;2.92;1.77;;;7.40;99.90;;;;;;4999342;28;94305;-31
2023/12/31 04:00:16;;;;;;;2.20;2.00;;;7.40;99.90;;;;;;4997850;28;95682;-31
2023/12/31 04:02:41;;;;;;;2.95;1.40;;;7.40;99.90;;;;;;4999381;28;95478;-29
2023/12/31 04:05:07;;;;;;;2.42;1.63;;;7.40;99.90;;;;;;4999230;28;93250;-28
2023/12/31 04:07:33;;;;;;;2.45;2.05;;;7.40;99.90;;;;;;4997166;28;93925;-30
2023/12/31 04:10:00;;;;;;;1.90;1.75;;;7.40;99.90;;;;;;4999571;28;94696;-31
2023/12/31 04:12:26;;;;;;;2.83;2.20;;;7.40;99.90;;;;;;4999462;28;94190;-32
2023/12/31 04:14:51;;;;;;;3.33;2.05;;;7.40;99.90;;;;;;4993013;28;93794;-32
2023/12/31 04:17:18;;;;;;;4.03;1.92;;;7.40;99.90;;;;;;4990625;28;91453;-32
2023/12/31 04:19:44;;;;;;;1.55;1.45;;;7.40;99.90;;;;;;4998566;28;94603;-32
2023/12/31 04:22:09;;;;;;;2.35;1.45;;;7.40;99.90;;;;;;4998055;28;94525;-31
2023/12/31 04:24:35;;;;;;;2.42;2.20;;;7.50;99.90;;;;;;5001432;28;94693;-29
2023/12/31 04:27:01;;;;;;;2.17;1.98;;;7.50;99.90;;;;;;5017480;28;93545;-31
2023/12/31 04:29:26;;;;;;;1.95;1.85;;;7.50;99.90;;;;;;5015824;28;94936;-28
2023/12/31 04:31:52;;;;;;;2.22;2.03;;;7.50;99.90;;;;;;4998454;28;94272;-30
2023/12/31 04:34:17;;;;;;;3.10;2.10;;;7.50;99.90;;;;;;5001425;28;94816;-32
2023/12/31 04:36:44;;;;;;;2.00;1.70;;;7.40;99.90;;;;;;5018083;28;93944;-30
2023/12/31 04:39:10;;;;;;;2.17;1.98;;;7.40;99.90;;;;;;5001233;28;95110;-32
2023/12/31 04:41:36;;;;;;;3.30;2.65;;;7.40;99.90;;;;;;5008991;28;94176;-29
2023/12/31 04:44:01;;;;;;;2.95;2.03;;;7.50;99.90;;;;;;5004636;28;92959;-31
2023/12/31 04:46:27;;;;;;;2.20;1.88;;;7.50;99.90;;;;;;5018193;28;92180;-29
2023/12/31 04:48:53;;;;;;;5.90;2.30;;;7.50;99.90;;;;;;4993617;28;95499;-35
2023/12/31 04:51:29;;;;;;;2.47;2.33;;;7.50;99.90;;;;;;4990245;28;95582;-31
2023/12/31 04:53:55;;;;;;;3.00;2.40;;;7.50;99.90;;;;;;4999719;28;94092;-30
2023/12/31 04:56:23;;;;;;;6.05;2.65;;;7.50;99.90;;;;;;4998372;28;94258;-31
2023/12/31 04:58:50;;;;;;;2.47;2.28;;;7.60;99.90;;;;;;4999023;28;94815;-31
2023/12/31 05:01:16;;;;;;;9.00;2.53;;;7.60;99.90;;;;;;4998219;28;93954;-32
2023/12/31 05:03:43;;;;;;;2.33;2.13;;;7.60;99.90;;;;;;4999923;28;92866;-29
2023/12/31 05:06:10;;;;;;;3.70;2.00;;;7.60;99.90;;;;;;4998548;28;92634;-31
2023/12/31 05:08:35;;;;;;;3.30;2.35;;;7.70;99.90;;;;;;4998865;28;94772;-31
2023/12/31 05:11:02;;;;;;;5.22;2.35;;;7.60;99.90;;;;;;4998984;28;94572;-31
2023/12/31 05:13:27;;;;;;;3.42;2.88;;;7.60;99.90;;;;;;4997472;28;94330;-31
2023/12/31 05:15:53;;;;;;;3.75;2.35;;;7.70;99.90;;;;;;4999186;28;92279;-33
2023/12/31 05:18:19;;;;;;;3.70;2.40;;;7.70;99.90;;;;;;4999760;28;95250;-33
2023/12/31 05:20:44;;;;;;;3.08;1.98;;;7.70;99.90;;;;;;4999760;28;94621;-31
2023/12/31 05:23:10;;;;;;;5.55;3.15;;;7.70;99.90;;;;;;4993234;28;94125;-31
2023/12/31 05:25:35;;;;;;;4.13;2.83;;;7.70;99.90;;;;;;4992936;28;93165;-30
2023/12/31 05:28:01;;;;;;;2.80;2.47;;;7.70;99.90;;;;;;5004955;28;96760;-28
2023/12/31 05:30:27;;;;;;;2.55;2.10;;;7.80;99.90;;;;;;5006448;28;94492;-32
2023/12/31 05:32:52;;;;;;;3.90;2.70;;;7.70;99.90;;;;;;4997821;28;94167;-33
2023/12/31 05:35:18;;;;;;;2.72;2.40;;;7.80;99.90;;;;;;4997322;28;92516;-32
2023/12/31 05:37:43;;;;;;;3.95;2.50;;;7.70;99.90;;;;;;5009599;28;94235;-30
2023/12/31 05:40:10;;;;;;;2.85;2.63;;;7.80;99.90;;;;;;4996800;28;96629;-32
2023/12/31 05:42:35;;;;;;;4.13;2.72;;;7.80;99.90;;;;;;5015097;28;93129;-33
2023/12/31 05:45:01;;;;;;;3.78;3.00;;;7.70;99.90;;;;;;5016500;28;94422;-31
2023/12/31 05:47:26;;;;;;;2.38;2.03;;;7.70;99.90;;;;;;5003122;28;94655;-31
2023/12/31 05:49:52;;;;;;;4.00;2.35;;;7.70;99.90;;;;;;5016994;28;94122;-28
2023/12/31 05:52:17;;;;;;;2.63;2.28;;;7.70;99.90;;;;;;4993324;28;93356;-30
2023/12/31 05:54:43;;;;;;;2.40;2.20;;;7.70;99.90;;;;;;4998588;28;93520;-33
2023/12/31 05:57:09;;;;;;;4.28;2.13;;;7.70;99.90;;;;;;4990204;28;94828;-29
2023/12/31 05:59:34;;;;;;;7.00;2.75;;;7.70;99.90;;;;;;4989011;28;94463;-30
2023/12/31 06:02:00;;;;;;;4.10;3.10;;;7.70;99.90;;;;;;4997353;28;93613;-31
2023/12/31 06:04:25;;;;;;;11.20;2.58;;;7.70;99.90;;;;;;4997570;28;92157;-30
2023/12/31 06:06:51;;;;;;;3.05;2.58;;;7.80;99.90;;;;;;4997244;28;94832;-30
2023/12/31 06:09:16;;;;;;;2.33;2.13;;;7.70;99.90;;;;;;4996197;28;94982;-31
2023/12/31 06:11:42;;;;;;;5.28;2.10;;;7.70;99.90;;;;;;4997609;28;93129;-30
2023/12/31 06:14:08;;;;;;;6.28;2.28;;;7.70;99.90;;;;;;4997585;28;93736;-30
2023/12/31 06:16:34;;;;;;;2.42;1.95;;;7.80;99.90;;;;;;5009778;28;94518;-32
2023/12/31 06:18:59;;;;;;;3.17;2.85;;;7.80;99.90;;;;;;4996124;28;94832;-29
2023/12/31 06:21:25;;;;;;;2.38;2.03;;;7.80;99.90;;;;;;4997418;28;94450;-30
2023/12/31 06:23:51;;;;;;;3.60;2.85;;;7.80;99.90;;;;;;4997647;28;93380;-31
2023/12/31 06:26:16;;;;;;;3.80;2.22;;;7.80;99.90;;;;;;4995830;28;96007;-32
2023/12/31 06:28:42;;;;;;;2.45;1.90;;;7.90;99.90;;;;;;5007464;28;95023;-32
2023/12/31 06:31:09;;;;;;;4.25;2.58;;;7.90;99.90;;;;;;4991018;28;93987;-32
2023/12/31 06:33:35;;;;;;;2.65;2.38;;;8.00;99.90;;;;;;4987136;28;92655;-32
2023/12/31 06:36:00;;;;;;;3.13;1.88;;;8.00;99.90;;;;;;5000127;28;94723;-32
2023/12/31 06:38:26;;;;;;;3.38;2.13;;;8.00;99.90;;;;;;5005265;28;96014;-31
2023/12/31 06:40:52;;;;;;;3.25;2.08;;;8.10;99.90;;;;;;5014107;28;93345;-33
2023/12/31 06:43:17;;;;;;;5.32;2.70;;;8.20;99.90;;;;;;5017102;27;91512;-30
2023/12/31 06:45:43;;;;;;;2.97;2.65;;;8.20;99.90;;;;;;5014968;28;94690;-33
2023/12/31 06:48:09;;;;;;;2.88;1.90;;;8.20;99.90;;;;;;5016184;27;93888;-30
2023/12/31 06:50:35;;;;;;;6.38;3.30;;;8.20;99.90;;;;;;5012110;28;93511;-31
2023/12/31 06:53:04;;;;;;;4.75;2.40;;;8.20;99.90;;;;;;4996240;28;92135;-31
2023/12/31 06:55:29;;;;;;;3.53;2.58;;;8.30;99.90;;;;;;5014762;28;93401;-31
2023/12/31 06:57:55;;;;;;;2.63;2.42;;;8.30;99.90;;;;;;4997515;28;95912;-33
2023/12/31 07:00:22;;;;;;;6.72;2.78;;;8.30;99.90;;;;;;4995265;28;94719;-31
2023/12/31 07:02:47;;;;;;;3.22;2.38;;;8.30;99.90;;;;;;4996363;28;93024;-31
2023/12/31 07:05:13;;;;;;;3.15;2.85;;;8.30;99.90;;;;;;4982624;28;94592;-33
2023/12/31 07:07:40;;;;;;;2.78;2.35;;;8.20;99.90;;;;;;4994851;28;94868;-31
2023/12/31 07:10:06;;;;;;;3.55;2.40;;;8.20;99.90;;;;;;4997115;28;92802;-30
2023/12/31 07:12:32;;;;;;;4.75;2.55;;;8.20;99.90;;;;;;5013678;28;94128;-31
2023/12/31 07:14:58;;;;;;;3.85;3.22;;;8.30;99.90;;;;;;5015367;28;94958;-33
2023/12/31 07:17:23;;;;;;;3.40;2.53;;;8.30;99.90;;;;;;5014331;28;95440;-32
2023/12/31 07:19:49;;;;;;;4.88;2.92;;;8.30;99.90;;;;;;5016046;28;94126;-33
2023/12/31 07:22:14;;;;;;;2.42;2.10;;;8.30;99.90;;;;;;5014533;28;94109;-33
2023/12/31 07:24:40;;;;;;;2.85;2.20;;;8.30;99.90;;;;;;5015012;28;93216;-31
2023/12/31 07:27:08;;;;;;;2.58;2.00;;;8.30;99.90;;;;;;5014657;27;94645;-29
2023/12/31 07:29:34;;;;;;;3.67;2.08;;;8.30;99.90;;;;;;5014993;27;95151;-31
2023/12/31 07:31:59;;;;;;;3.15;2.13;;;8.30;99.90;;;;;;5008833;28;93808;-33
2023/12/31 07:34:25;;;;;;;2.58;2.20;;;8.30;99.90;;;;;;4999615;28;94323;-32
2023/12/31 07:36:50;;;;;;;2.58;2.33;;;8.30;99.90;;;;;;4999584;28;95434;-29
2023/12/31 07:39:16;;;;;;;3.25;2.95;;;8.30;99.90;;;;;;4990590;28;93075;-30
2023/12/31 07:41:41;;;;;;;6.13;3.47;;;8.30;99.90;;;;;;4991171;28;94648;-30
2023/12/31 07:44:07;;;;;;;3.70;2.63;;;8.30;99.90;;;;;;4999901;28;93732;-29
2023/12/31 07:46:32;;;;;;;3.90;2.80;;;8.30;99.90;;;;;;5049449;22;94456;-32
2023/12/31 07:48:58;;;;;;;6.82;2.83;;;8.30;99.90;;;;;;5003243;28;93139;-31
2023/12/31 07:51:24;;;;;;;7.90;2.95;;;8.20;99.90;;;;;;4995818;28;93708;-31
2023/12/31 07:53:49;;;;;;;4.28;3.20;;;8.30;99.90;;;;;;5002517;28;94788;-32
2023/12/31 07:56:15;;;;;;;4.45;2.75;;;8.30;99.90;;;;;;5001692;28;94386;-30
2023/12/31 07:58:41;;;;;;;4.30;3.10;;;8.30;99.90;;;;;;5002541;28;92649;-31
2023/12/31 08:01:06;;;;;;;6.40;3.25;;;8.40;99.90;;;;;;5006578;28;94674;-28
2023/12/31 08:03:32;;;;;;;5.47;4.97;;;8.30;99.90;;;;;;5010162;28;95673;-29
2023/12/31 08:05:57;;;;;;;5.28;3.22;;;8.40;99.90;;;;;;5007984;28;95609;-30
2023/12/31 08:08:24;;;;;;;3.97;3.45;;;8.40;99.90;;;;;;5003817;28;92271;-29
2023/12/31 08:10:49;;;;;;;3.83;3.40;;;8.40;99.90;;;;;;5014931;28;92882;-32
2023/12/31 08:13:15;;;;;;;3.55;2.65;;;8.40;99.90;;;;;;4996243;28;94167;-30
2023/12/31 08:15:41;;;;;;;3.92;2.25;;;8.40;99.90;;;;;;5008582;27;93916;-32
2023/12/31 08:18:07;;;;;;;4.20;2.75;;;8.40;99.90;;;;;;5012146;28;93173;-30
2023/12/31 08:20:33;;;;;;;2.58;2.00;;;8.40;99.90;;;;;;5014624;28;93687;-29
2023/12/31 08:22:59;;;;;;;3.08;2.85;;;8.50;99.90;;;;;;5011320;28;94542;-33
2023/12/31 08:25:25;;;;;;;4.38;2.30;;;8.40;99.90;;;;;;5013282;28;94661;-33
2023/12/31 08:27:50;;;;;;;3.90;2.85;;;8.50;99.90;;;;;;5011641;28;93905;-29
2023/12/31 08:30:16;;;;;;;3.10;2.80;;;8.50;99.90;;;;;;5008714;28;93138;-30
2023/12/31 08:32:41;;;;;;;6.80;3.45;;;8.50;99.90;;;;;;4998389;28;94171;-30
2023/12/31 08:35:09;;;;;;;2.50;2.28;;;8.50;99.90;;;;;;4997779;28;94273;-30
2023/12/31 08:37:35;;;;;;;3.35;2.40;;;8.50;99.90;;;;;;4999589;28;94375;-32
2023/12/31 08:40:01;;;;;;;3.35;2.22;;;8.50;99.90;;;;;;4998061;28;92870;-31
2023/12/31 08:42:27;;;;;;;3.35;2.20;;;8.50;99.90;;;;;;4996352;28;95222;-31
2023/12/31 08:44:52;;;;;;;2.42;2.22;;;8.50;99.90;;;;;;4998542;28;94507;-31
2023/12/31 08:47:18;;;;;;;2.50;2.30;;;8.50;99.90;;;;;;4988805;28;93073;-32
2023/12/31 08:49:43;;;;;;;2.35;1.92;;;8.60;99.90;;;;;;4988285;28;94552;-31
2023/12/31 08:52:09;;;;;;;3.15;2.40;;;8.60;99.90;;;;;;4996653;28;96138;-31
2023/12/31 08:54:35;;;;;;;2.42;2.15;;;8.70;99.90;;;;;;4997477;28;95275;-32
2023/12/31 08:57:00;;;;;;;3.30;2.42;;;8.60;99.90;;;;;;4989758;28;93580;-31
2023/12/31 08:59:26;;;;;;;3.10;2.38;;;8.60;99.90;;;;;;4989799;28;92115;-30
2023/12/31 09:01:52;;;;;;;6.20;3.13;;;8.70;99.90;;;;;;5005492;28;94738;-29
2023/12/31 09:04:17;;;;;;;3.65;2.42;;;8.70;99.90;;;;;;5007085;28;94349;-32
2023/12/31 09:06:44;;;;;;;4.07;2.08;;;8.70;99.90;;;;;;5005437;28;94401;-33
2023/12/31 09:09:10;;;;;;;3.58;2.55;;;8.70;99.90;;;;;;5009012;28;92697;-31
2023/12/31 09:11:36;;;;;;;3.03;2.05;;;8.80;99.90;;;;;;5003945;28;94289;-28
2023/12/31 09:14:02;;;;;;;4.30;2.95;;;8.90;99.90;;;;;;5008012;28;94668;-33
2023/12/31 09:16:27;;;;;;;9.35;7.47;;;8.80;99.90;;;;;;5004437;28;95504;-32
2023/12/31 09:18:53;;;;;;;11.45;10.25;;;8.80;99.90;;;;;;5007138;28;93712;-34
2023/12/31 09:21:19;;;;;;;13.38;12.07;;;8.80;99.90;;;;;;4991905;28;94815;-31
2023/12/31 09:23:45;;;;;;;13.85;6.53;;;8.90;99.90;;;;;;5002043;28;94574;-31
2023/12/31 09:26:11;;;;;;;5.00;3.72;;;8.90;99.90;;;;;;5004942;28;92787;-32
2023/12/31 09:28:36;;;;;;;4.25;3.22;;;8.90;99.90;;;;;;5009773;27;94421;-30
2023/12/31 09:31:02;;;;;;;6.57;5.82;;;8.90;99.90;;;;;;5010859;28;94761;-30
2023/12/31 09:33:28;;;;;;;5.53;4.75;;;8.90;99.90;;;;;;4994912;28;96068;-30
2023/12/31 09:35:53;;;;;;;4.55;3.63;;;9.00;99.90;;;;;;4995482;28;95051;-33
2023/12/31 09:38:19;;;;;;;9.05;5.43;;;9.00;99.90;;;;;;4996802;28;92304;-32
2023/12/31 09:40:45;;;;;;;5.72;5.00;;;9.00;99.90;;;;;;4994129;28;95523;-32
2023/12/31 09:43:12;;;;;;;6.43;4.07;;;9.10;99.90;;;;;;4994938;28;95354;-32
2023/12/31 09:45:39;;;;;;;3.10;2.80;;;9.00;99.90;;;;;;4996561;28;92313;-31
2023/12/31 09:48:06;;;;;;;3.17;2.83;;;9.10;99.90;;;;;;5013945;27;94343;-32
2023/12/31 09:50:33;;;;;;;4.07;3.67;;;9.10;99.90;;;;;;5014317;27;94801;-33
2023/12/31 09:53:02;;;;;;;4.47;3.33;;;9.10;99.90;;;;;;5005008;27;92775;-32
2023/12/31 09:55:29;;;;;;;5.30;4.00;;;9.10;99.90;;;;;;4986313;28;93178;-31
2023/12/31 09:57:55;;;;;;;6.03;4.43;;;9.20;99.90;;;;;;4986727;28;92256;-32
2023/12/31 10:00:21;;;;;;;4.00;3.70;;;9.20;99.90;;;;;;4994800;28;94733;-33
2023/12/31 10:02:51;;;;;;;6.55;4.75;;;9.20;99.90;;;;;;4994557;28;94926;-33
2023/12/31 10:05:20;;;;;;;13.95;9.63;;;9.20;99.90;;;;;;4998302;28;95434;-32
2023/12/31 10:07:46;;;;;;;10.70;9.02;;;9.30;99.90;;;;;;5014115;27;93977;-30
2023/12/31 10:10:14;;;;;;;8.63;7.32;;;9.40;99.90;;;;;;5007727;28;94914;-32
2023/12/31 10:12:39;;;;;;;8.13;7.23;;;9.30;99.90;;;;;;5007135;28;94361;-34
2023/12/31 10:15:08;;;;;;;11.75;8.27;;;9.30;99.90;;;;;;5007690;28;93088;-31
2023/12/31 10:17:35;;;;;;;7.63;6.82;;;9.30;99.90;;;;;;5012953;27;94511;-30
2023/12/31 10:20:03;;;;;;;8.43;4.60;;;9.40;99.90;;;;;;5011895;28;94651;-33
2023/12/31 10:22:34;;;;;;;5.75;4.18;;;9.40;99.90;;;;;;5013783;27;94437;-29
2023/12/31 10:25:15;;;;;;;4.68;4.28;;;9.40;99.90;;;;;;4988746;28;93606;-32
2023/12/31 10:27:43;;;;;;;4.78;4.32;;;9.40;99.90;;;;;;5009168;27;94789;-32
2023/12/31 10:30:12;;;;;;;4.97;4.57;;;9.50;99.90;;;;;;4981369;28;96065;-31
2023/12/31 10:32:38;;;;;;;9.85;7.18;;;9.40;99.90;;;;;;5002944;28;95843;-30
2023/12/31 10:35:04;;;;;;;6.97;6.28;;;9.50;99.90;;;;;;4995248;28;94856;-30
2023/12/31 10:37:30;;;;;;;7.88;4.43;;;9.50;99.90;;;;;;4999520;28;93875;-31
2023/12/31 10:39:56;;;;;;;5.45;4.63;;;9.50;99.90;;;;;;5002875;28;94933;-32
2023/12/31 10:42:22;;;;;;;8.73;7.80;;;9.60;99.90;;;;;;4994159;28;93866;-33
2023/12/31 10:44:53;;;;;;;9.27;6.95;;;9.70;99.90;;;;;;5006134;28;92242;-29
2023/12/31 10:47:22;;;;;;;7.55;6.57;;;9.80;99.90;;;;;;4994158;28;92512;-30
2023/12/31 10:49:49;;;;;;;7.32;5.30;;;9.90;99.90;;;;;;4994925;28;94154;-30
2023/12/31 10:52:16;;;;;;;8.38;6.13;;;9.90;99.90;;;;;;4991735;28;94750;-32
2023/12/31 10:54:46;;;;;;;7.25;5.28;;;9.90;99.90;;;;;;4993722;28;93605;-31
2023/12/31 10:57:13;;;;;;;8.35;6.97;;;9.90;99.90;;;;;;4994359;28;93316;-32
2023/12/31 10:59:42;;;;;;;11.43;7.25;;;9.90;99.90;;;;;;4993294;28;94447;-29
2023/12/31 11:02:21;;;;;;;6.30;5.70;;;9.90;99.90;;;;;;4988808;28;94938;-31
2023/12/31 11:04:48;;;;;;;14.93;7.88;;;9.90;99.90;;;;;;4987535;28;93836;-31
2023/12/31 11:07:15;;;;;;;6.40;5.57;;;9.90;99.90;;;;;;4993958;28;95162;-33
2023/12/31 11:09:42;;;;;;;9.65;6.97;;;9.90;99.90;;;;;;4991983;28;94681;-33
2023/12/31 11:12:08;;;;;;;6.90;4.88;;;9.80;99.90;;;;;;4994458;28;94494;-32
2023/12/31 11:14:37;;;;;;;9.30;5.53;;;9.80;99.90;;;;;;4994379;28;93332;-33
2023/12/31 11:17:17;;;;;;;5.43;4.35;;;9.80;99.90;;;;;;4992975;28;92958;-31
2023/12/31 11:20:07;;;;;;;5.35;4.82;;;9.80;99.90;;;;;;4993387;28;95546;-32
2023/12/31 11:22:51;;;;;;;4.35;3.95;;;9.80;99.90;;;;;;4994916;28;93464;-33
2023/12/31 11:25:21;;;;;;;42.42;23.13;;;9.80;99.90;;;;;;4994904;28;94425;-33
2023/12/31 11:27:53;;;;;;;14.63;11.02;;;9.80;99.90;;;;;;4995793;28;94325;-34
2023/12/31 11:30:44;;;;;;;5.18;4.68;;;9.80;99.90;;;;;;4995298;28;94669;-33
2023/12/31 11:33:10;;;;;;;7.15;4.40;;;9.80;99.90;;;;;;4988015;28;94469;-30
2023/12/31 11:35:44;;;;;;;5.65;4.15;;;9.80;99.90;;;;;;4994993;28;93153;-32
2023/12/31 11:38:09;;;;;;;5.18;3.63;;;9.90;99.90;;;;;;5004243;28;93255;-33
2023/12/31 11:40:36;;;;;;;6.63;4.45;;;9.80;99.90;;;;;;5000327;28;94830;-30
2023/12/31 11:43:15;;;;;;;5.47;4.35;;;9.70;99.90;;;;;;5003413;27;94847;-32
2023/12/31 11:45:42;;;;;;;4.07;3.67;;;9.60;99.90;;;;;;5000662;28;94063;-32
2023/12/31 11:48:19;;;;;;;4.55;3.28;;;9.60;99.90;;;;;;5003763;27;93749;-29
2023/12/31 11:50:53;;;;;;;6.03;4.97;;;9.60;99.90;;;;;;5004496;28;94551;-31
2023/12/31 11:53:22;;;;;;;6.28;4.07;;;9.60;99.90;;;;;;4998693;27;93899;-32
2023/12/31 11:56:01;;;;;;;3.88;3.38;;;9.60;99.90;;;;;;5006033;28;92379;-34
2023/12/31 11:58:30;;;;;;;3.42;3.13;;;9.60;99.90;;;;;;4996136;28;92600;-30
2023/12/31 12:00:56;;;;;;;4.78;3.65;;;9.60;99.90;;;;;;4998213;28;94188;-32
2023/12/31 12:03:21;;;;;;;3.65;3.35;;;9.60;99.90;;;;;;4992866;28;94138;-30
2023/12/31 12:05:49;;;;;;;1.85;1.52;;;9.60;99.90;;;;;;5003072;28;94422;-32
2023/12/31 12:08:16;;;;;;;1.40;1.30;;;9.30;99.90;;;;;;4978068;28;94711;-32
2023/12/31 12:10:42;;;;;;;1.58;0.82;;;9.20;99.90;;;;;;4987355;28;96881;-33
2023/12/31 12:13:08;;;;;;;4.78;0.88;;;9.00;99.90;;;;;;4992628;28;95370;-33
2023/12/31 12:15:35;;;;;;;1.52;0.70;;;8.80;99.90;;;;;;5001691;28;93898;-32
2023/12/31 12:18:01;;;;;;;1.85;0.68;;;8.80;99.90;;;;;;5014422;28;93649;-32
2023/12/31 12:20:28;;;;;;;0.50;0.50;;;8.70;99.90;;;;;;5008702;27;94069;-30
2023/12/31 12:22:55;;;;;;;1.98;0.73;;;8.60;99.90;;;;;;5014703;27;93938;-31
2023/12/31 12:25:22;;;;;;;1.15;1.15;;;8.60;99.90;;;;;;5016685;27;93051;-32
2023/12/31 12:27:48;;;;;;;1.20;1.10;;;8.60;99.90;;;;;;5014482;28;92902;-31
2023/12/31 12:30:14;;;;;;;1.90;0.70;;;8.50;99.90;;;;;;5015444;28;94459;-32
2023/12/31 12:32:45;;;;;;;0.55;0.55;;;8.50;99.90;;;;;;5016373;27;94483;-32
2023/12/31 12:35:13;;;;;;;0.80;0.80;;;8.40;99.90;;;;;;4990212;27;94947;-33
2023/12/31 12:37:39;;;;;;;1.10;0.80;;;8.40;99.90;;;;;;5014655;27;92605;-31
2023/12/31 12:40:05;;;;;;;0.95;0.80;;;8.40;99.90;;;;;;5010037;28;95417;-31
2023/12/31 12:42:33;;;;;;;1.33;0.80;;;8.40;99.90;;;;;;4990654;28;93298;-29
2023/12/31 12:44:58;;;;;;;2.13;0.97;;;8.30;99.90;;;;;;5008449;28;93360;-30
2023/12/31 12:47:24;;;;;;;0.85;0.85;;;8.30;99.90;;;;;;5015258;28;93269;-31
2023/12/31 12:49:50;;;;;;;1.20;1.10;;;8.30;99.90;;;;;;5012748;28;94596;-29
2023/12/31 12:52:16;;;;;;;1.40;1.30;;;8.30;99.90;;;;;;5013512;28;94532;-31